Time;durP1;ratioP1;P1;durP2;ratioP2;P2;SDS_P1;SDS_P2;PMS_P1;PMS_P2;Temp;Humidity;BMP_temperature;BMP_pressure;BME280_temperature;BME280_humidity;BME280_pressure;Samples;Min_cycle;Max_cycle;Signal;HPM_P1;HPM_P2
2022/04/26 03:36:33;;;;;;;;;;;7.30;99.90;;;;;;10245497;28;84921;-51
2022/04/26 03:41:34;;;;;;;;;;;7.10;99.90;;;;;;10247920;28;84951;-52
2022/04/26 03:46:35;;;;;;;;;;;7.10;99.90;;;;;;10260218;28;84171;-48
2022/04/26 03:51:35;;;;;;;;;;;7.10;99.90;;;;;;10293798;28;84797;-49
2022/04/26 03:56:36;;;;;;;;;;;7.10;99.90;;;;;;10292641;28;85003;-47
2022/04/26 04:01:36;;;;;;;;;;;7.10;99.90;;;;;;10278255;28;84349;-47
2022/04/26 04:06:37;;;;;;;;;;;7.00;99.90;;;;;;10250891;28;84854;-47
2022/04/26 04:11:37;;;;;;;;;;;7.00;99.90;;;;;;10248960;28;84915;-47
2022/04/26 04:16:38;;;;;;;;;;;7.00;99.90;;;;;;10249914;28;85128;-47
2022/04/26 04:21:39;;;;;;;;;;;7.00;99.90;;;;;;10232239;28;85759;-47
2022/04/26 04:26:40;;;;;;;;;;;6.90;99.90;;;;;;10249588;28;84984;-46
2022/04/26 04:31:41;;;;;;;;;;;7.00;99.90;;;;;;10249839;28;85005;-49
2022/04/26 04:36:41;;;;;;;;;;;7.00;99.90;;;;;;10231675;28;86881;-47
2022/04/26 04:41:42;;;;;;;;;;;6.90;99.90;;;;;;10246688;28;84274;-47
2022/04/26 04:46:42;;;;;;;;;;;6.90;99.90;;;;;;10269091;28;85777;-47
2022/04/26 04:51:43;;;;;;;;;;;6.90;99.90;;;;;;10251960;28;84233;-49
2022/04/26 04:56:43;;;;;;;;;;;7.00;99.90;;;;;;10258884;28;84345;-48
2022/04/26 05:01:44;;;;;;;;;;;7.10;99.90;;;;;;10269794;28;85124;-48
2022/04/26 05:06:44;;;;;;;;;;;7.20;99.90;;;;;;10268863;28;85054;-47
2022/04/26 05:11:45;;;;;;;;;;;7.30;99.90;;;;;;10267806;28;84360;-48
2022/04/26 05:16:45;;;;;;;;;;;7.40;99.90;;;;;;10247717;28;85026;-48
2022/04/26 05:21:46;;;;;;;;;;;7.60;99.90;;;;;;10270972;28;84960;-49
2022/04/26 05:26:46;;;;;;;;;;;7.70;99.90;;;;;;10253125;28;84288;-47
2022/04/26 05:31:47;;;;;;;;;;;7.80;99.90;;;;;;10265880;28;85669;-50
2022/04/26 05:36:47;;;;;;;;;;;7.90;99.90;;;;;;10247145;28;84062;-47
2022/04/26 05:41:48;;;;;;;;;;;7.90;99.90;;;;;;10265486;28;84943;-47
2022/04/26 05:46:48;;;;;;;;;;;8.00;99.90;;;;;;10269048;28;84335;-45
2022/04/26 05:51:50;;;;;;;;;;;8.10;99.90;;;;;;10259751;28;84580;-48
2022/04/26 05:56:52;;;;;;;;;;;8.20;99.90;;;;;;10245718;28;85135;-50
2022/04/26 06:01:53;;;;;;;;;;;8.40;99.90;;;;;;10230166;28;87091;-46
2022/04/26 06:06:53;;;;;;;;;;;8.60;99.90;;;;;;10247947;28;84084;-45
2022/04/26 06:11:54;;;;;;;;;;;8.70;99.90;;;;;;10247539;28;84913;-45
2022/04/26 06:16:54;;;;;;;;;;;8.80;99.90;;;;;;10247398;28;85080;-46
2022/04/26 06:21:55;;;;;;;;;;;9.10;99.90;;;;;;10229520;28;86897;-46
2022/04/26 06:26:55;;;;;;;;;;;9.30;99.90;;;;;;10247245;28;85063;-49
2022/04/26 06:31:56;;;;;;;;;;;9.40;99.90;;;;;;10247148;28;84058;-47
2022/04/26 06:36:56;;;;;;;;;;;9.70;99.90;;;;;;10246012;28;84863;-47
2022/04/26 06:41:57;;;;;;;;;;;10.00;99.90;;;;;;10246908;28;84939;-47
2022/04/26 06:46:57;;;;;;;;;;;10.10;95.90;;;;;;10246573;28;84897;-48
2022/04/26 06:51:58;;;;;;;;;;;10.60;55.20;;;;;;10247652;28;84309;-49
2022/04/26 06:56:58;;;;;;;;;;;10.70;16.80;;;;;;10229050;28;84950;-49
2022/04/26 07:01:59;;;;;;;;;;;11.40;1.00;;;;;;10246750;28;84283;-49
2022/04/26 07:06:59;;;;;;;;;;;11.80;1.00;;;;;;10246549;28;84800;-47
2022/04/26 07:12:00;;;;;;;;;;;12.30;1.00;;;;;;10247338;28;84239;-50
2022/04/26 07:17:02;;;;;;;;;;;12.80;1.00;;;;;;10246947;28;84036;-49
2022/04/26 07:22:03;;;;;;;;;;;13.20;1.00;;;;;;10248442;28;84921;-46
2022/04/26 07:27:04;;;;;;;;;;;13.60;1.00;;;;;;10253366;28;84412;-47
2022/04/26 07:32:04;;;;;;;;;;;14.20;1.00;;;;;;10340238;22;84146;-52
2022/04/26 07:37:05;;;;;;;;;;;14.30;1.00;;;;;;10316039;28;84863;-54
2022/04/26 07:42:05;;;;;;;;;;;14.50;1.00;;;;;;10317703;28;84895;-54
2022/04/26 07:47:06;;;;;;;;;;;14.80;1.00;;;;;;10335048;28;84480;-52
2022/04/26 07:52:07;;;;;;;;;;;15.50;1.00;;;;;;10335077;28;84704;-54
2022/04/26 07:57:08;;;;;;;;;;;16.20;1.00;;;;;;10317481;28;84116;-53
2022/04/26 08:02:12;;;;;;;;;;;15.80;1.00;;;;;;10342434;28;84774;-52
2022/04/26 08:07:13;;;;;;;;;;;16.30;1.00;;;;;;10336548;28;84815;-55
2022/04/26 08:12:13;;;;;;;;;;;16.80;99.90;;;;;;10332893;28;84184;-50
2022/04/26 08:17:17;;;;;;;;;;;16.60;99.90;;;;;;10331856;28;85693;-55
2022/04/26 08:22:17;;;;;;;;;;;16.10;99.90;;;;;;10332134;28;85299;-54
2022/04/26 08:27:30;;;;;;;;;;;15.60;1.00;;;;;;10331427;28;84085;-53
2022/04/26 08:32:37;;;;;;;;;;;15.50;1.00;;;;;;10313692;28;85950;-50
2022/04/26 08:37:38;;;;;;;;;;;16.40;99.90;;;;;;10330191;28;85082;-54
2022/04/26 08:42:40;;;;;;;;;;;17.30;99.90;;;;;;10332055;28;84778;-52
2022/04/26 08:52:59;;;;;;;;;;;18.90;1.00;;;;;;10331270;28;84127;-54
2022/04/26 08:58:00;;;;;;;;;;;19.80;1.00;;;;;;10330572;28;84948;-52
2022/04/26 09:03:04;;;;;;;;;;;20.70;99.90;;;;;;10313023;28;85993;-54
2022/04/26 09:08:20;;;;;;;;;;;20.80;1.00;;;;;;10331191;28;84847;-55
2022/04/26 09:13:23;;;;;;;;;;;20.80;99.90;;;;;;10330512;28;84104;-51
2022/04/26 09:18:26;;;;;;;;;;;20.80;99.90;;;;;;10329536;28;85648;-54
2022/04/26 09:23:28;;;;;;;;;;;21.10;99.90;;;;;;10329709;28;84814;-54
2022/04/26 09:28:29;;;;;;;;;;;21.50;1.00;;;;;;10329278;28;84104;-54
2022/04/26 09:33:36;;;;;;;;;;;22.10;99.90;;;;;;10330052;28;84964;-52
2022/04/26 09:38:38;;;;;;;;;;;22.80;1.00;;;;;;10328806;28;84909;-53
2022/04/26 09:43:39;;;;;;;;;;;22.10;1.00;;;;;;10328650;28;84117;-51
2022/04/26 09:48:39;;;;;;;;;;;20.20;99.90;;;;;;10328804;28;84127;-54
2022/04/26 09:53:40;;;;;;;;;;;20.40;1.00;;;;;;10329006;28;84215;-50
2022/04/26 09:58:43;;;;;;;;;;;20.90;99.90;;;;;;10327927;28;84541;-54
2022/04/26 10:03:45;;;;;;;;;;;19.90;99.90;;;;;;10312063;28;84885;-52
2022/04/26 10:08:46;;;;;;;;;;;20.50;1.00;;;;;;10310658;28;85945;-55
2022/04/26 10:13:48;;;;;;;;;;;21.50;1.00;;;;;;10329516;28;84923;-54
2022/04/26 10:18:49;;;;;;;;;;;20.40;99.90;;;;;;10328587;28;84370;-54
2022/04/26 10:24:02;;;;;;;;;;;20.80;1.00;;;;;;10328550;28;86537;-54
2022/04/26 10:29:08;;;;;;;;;;;20.40;99.90;;;;;;10326984;28;84946;-53
2022/04/26 10:34:16;;;;;;;;;;;19.80;99.90;;;;;;10328183;28;84967;-54
2022/04/26 10:39:20;;;;;;;;;;;20.40;73.00;;;;;;10327205;28;84032;-56
2022/04/26 10:44:22;;;;;;;;;;;20.70;1.00;;;;;;10294890;28;86808;-54
2022/04/26 10:49:26;;;;;;;;;;;21.10;99.90;;;;;;10327248;28;84060;-55
2022/04/26 10:54:46;;;;;;;;;;;22.00;99.90;;;;;;10327660;28;84054;-54
2022/04/26 10:59:48;;;;;;;;;;;22.60;99.90;;;;;;10308800;28;84949;-53
2022/04/26 11:04:54;;;;;;;;;;;22.30;99.90;;;;;;10327955;28;84260;-55
2022/04/26 11:09:56;;;;;;;;;;;22.20;1.00;;;;;;10327025;28;84744;-53
2022/04/26 11:14:59;;;;;;;;;;;21.20;99.90;;;;;;10310714;28;84032;-53
2022/04/26 11:20:00;;;;;;;;;;;21.00;1.00;;;;;;10326940;28;84945;-52
2022/04/26 11:30:31;;;;;;;;;;;23.40;1.00;;;;;;10327464;28;84260;-54
2022/04/26 11:35:32;;;;;;;;;;;23.00;1.00;;;;;;10326635;28;84154;-54
2022/04/26 11:40:34;;;;;;;;;;;21.90;1.00;;;;;;10309982;28;84370;-52
2022/04/26 11:45:35;;;;;;;;;;;20.90;99.90;;;;;;10309139;28;85883;-53
2022/04/26 11:50:35;;;;;;;;;;;19.90;1.00;;;;;;10327826;28;84341;-52
2022/04/26 11:55:37;;;;;;;;;;;19.30;99.90;;;;;;10326763;28;84169;-55
2022/04/26 12:00:53;;;;;;;;;;;19.10;99.90;;;;;;10327728;28;84305;-56
2022/04/26 12:06:04;;;;;;;;;;;18.70;1.00;;;;;;10326382;28;84242;-54
2022/04/26 12:11:12;;;;;;;;;;;19.00;1.00;;;;;;10333970;28;84182;-55
2022/04/26 12:16:13;;;;;;;;;;;20.20;99.90;;;;;;10332520;28;84212;-56
2022/04/26 12:21:14;;;;;;;;;;;20.50;1.00;;;;;;10332429;28;84922;-55
2022/04/26 12:26:14;;;;;;;;;;;19.50;1.00;;;;;;10314616;28;85945;-55
2022/04/26 12:31:22;;;;;;;;;;;19.10;1.00;;;;;;10333269;28;85023;-55
2022/04/26 12:36:22;;;;;;;;;;;18.80;99.90;;;;;;10313182;28;85053;-54
2022/04/26 12:41:24;;;;;;;;;;;17.80;1.00;;;;;;10332772;28;84930;-54
2022/04/26 12:46:24;;;;;;;;;;;17.80;1.00;;;;;;10331468;28;84230;-56
2022/04/26 12:51:27;;;;;;;;;;;18.00;99.90;;;;;;10332372;28;84932;-55
2022/04/26 12:56:28;;;;;;;;;;;18.30;1.00;;;;;;10331301;28;85730;-53
2022/04/26 13:01:29;;;;;;;;;;;18.10;1.00;;;;;;10314301;28;85763;-53
2022/04/26 13:06:30;;;;;;;;;;;18.20;1.00;;;;;;10331270;28;85205;-54
2022/04/26 13:11:32;;;;;;;;;;;18.90;1.00;;;;;;10331948;28;84888;-55
2022/04/26 13:16:32;;;;;;;;;;;18.30;99.90;;;;;;10331153;28;84918;-54
2022/04/26 13:21:34;;;;;;;;;;;18.10;1.00;;;;;;10330281;28;84036;-54
2022/04/26 13:26:36;;;;;;;;;;;18.00;1.00;;;;;;10313001;28;85050;-55
2022/04/26 13:31:36;;;;;;;;;;;18.40;99.90;;;;;;10365819;22;84246;-46
2022/04/26 13:36:37;;;;;;;;;;;19.00;1.00;;;;;;10370932;28;86458;-46
2022/04/26 13:41:38;;;;;;;;;;;19.70;99.90;;;;;;10372108;28;85052;-48
2022/04/26 13:46:38;;;;;;;;;;;19.50;1.00;;;;;;10371286;28;84041;-46
2022/04/26 13:51:39;;;;;;;;;;;18.70;99.90;;;;;;10369341;28;84049;-47
2022/04/26 13:56:39;;;;;;;;;;;18.60;1.00;;;;;;10369009;28;84053;-48
2022/04/26 14:01:40;;;;;;;;;;;20.60;58.00;;;;;;10351401;28;85123;-46
2022/04/26 14:06:40;;;;;;;;;;;22.40;99.90;;;;;;10368761;28;84225;-51
2022/04/26 14:11:41;;;;;;;;;;;22.30;1.00;;;;;;10351203;28;85067;-49
2022/04/26 14:22:01;;;;;;;;;;;21.00;1.00;;;;;;10370839;28;84182;-45
2022/04/26 14:27:02;;;;;;;;;;;20.40;1.00;;;;;;10369678;28;85216;-46
2022/04/26 14:32:03;;;;;;;;;;;19.40;1.00;;;;;;10367822;28;84024;-47
2022/04/26 14:37:03;;;;;;;;;;;18.80;99.90;;;;;;10368373;28;86297;-47
2022/04/26 14:42:05;;;;;;;;;;;18.30;99.90;;;;;;10368986;28;84942;-46
2022/04/26 14:47:06;;;;;;;;;;;18.20;1.00;;;;;;10368385;28;84748;-45
2022/04/26 14:52:07;;;;;;;;;;;18.20;1.00;;;;;;10369163;28;84730;-47
2022/04/26 14:57:08;;;;;;;;;;;18.20;1.00;;;;;;10350726;28;85988;-45
2022/04/26 15:02:09;;;;;;;;;;;18.00;1.00;;;;;;10369055;28;84078;-42
2022/04/26 15:07:09;;;;;;;;;;;17.90;13.30;;;;;;10367522;28;84922;-46
2022/04/26 15:17:30;;;;;;;;;;;17.70;99.90;;;;;;10369258;28;84208;-46
2022/04/26 15:22:30;;;;;;;;;;;17.80;99.90;;;;;;10370337;28;84078;-46
2022/04/26 15:27:31;;;;;;;;;;;17.90;99.90;;;;;;10350774;28;86008;-46
2022/04/26 15:32:31;;;;;;;;;;;17.70;99.90;;;;;;10369869;28;84079;-48
2022/04/26 15:37:32;;;;;;;;;;;17.50;99.90;;;;;;10369216;28;85005;-46
2022/04/26 15:42:33;;;;;;;;;;;17.30;1.00;;;;;;10370659;28;84033;-46
2022/04/26 15:47:35;;;;;;;;;;;17.10;99.90;;;;;;10375510;28;84048;-45
2022/04/26 15:52:37;;;;;;;;;;;17.00;99.90;;;;;;10375786;28;84268;-47
2022/04/26 15:57:39;;;;;;;;;;;17.00;1.00;;;;;;10374483;28;84875;-48
2022/04/26 16:02:40;;;;;;;;;;;16.80;1.00;;;;;;10375044;28;84072;-45
2022/04/26 16:07:40;;;;;;;;;;;16.70;1.00;;;;;;10374723;28;84982;-44
2022/04/26 16:23:19;;;;;;;;;;;16.40;1.00;;;;;;10372117;28;84115;-46
2022/04/26 16:28:20;;;;;;;;;;;16.30;1.00;;;;;;10372506;28;84363;-46
2022/04/26 16:33:20;;;;;;;;;;;16.20;1.00;;;;;;10373462;28;85033;-52
2022/04/26 16:38:21;;;;;;;;;;;16.00;1.00;;;;;;10373601;28;84938;-47
2022/04/26 16:43:21;;;;;;;;;;;15.70;99.90;;;;;;10372795;28;84919;-47
2022/04/26 16:48:22;;;;;;;;;;;15.70;99.90;;;;;;10353253;28;84905;-49
2022/04/26 16:53:23;;;;;;;;;;;15.70;1.00;;;;;;10356060;28;84240;-47
2022/04/26 16:58:23;;;;;;;;;;;15.50;62.00;;;;;;10354311;28;85938;-46
2022/04/26 17:03:24;;;;;;;;;;;15.60;99.90;;;;;;10354630;28;84345;-52
2022/04/26 17:08:24;;;;;;;;;;;15.40;99.90;;;;;;10364738;28;84295;-48
2022/04/26 17:13:26;;;;;;;;;;;15.20;99.90;;;;;;10370455;28;84953;-47
2022/04/26 17:18:27;;;;;;;;;;;15.10;99.90;;;;;;10370082;28;85074;-47
2022/04/26 17:23:27;;;;;;;;;;;15.10;1.00;;;;;;10368708;28;85352;-48
2022/04/26 17:28:28;;;;;;;;;;;15.10;1.00;;;;;;10374256;28;84380;-46
2022/04/26 17:33:28;;;;;;;;;;;15.00;1.00;;;;;;10372142;28;84274;-47
2022/04/26 17:38:29;;;;;;;;;;;14.80;1.00;;;;;;10371616;28;84228;-46
2022/04/26 17:43:30;;;;;;;;;;;14.70;99.90;;;;;;10372487;28;84298;-46
2022/04/26 17:48:32;;;;;;;;;;;14.60;99.90;;;;;;10371268;28;84043;-48
2022/04/26 17:58:52;;;;;;;;;;;14.40;99.90;;;;;;10371166;28;84945;-46
2022/04/26 18:03:52;;;;;;;;;;;14.40;1.00;;;;;;10372257;28;84818;-46
2022/04/26 18:08:53;;;;;;;;;;;14.40;1.00;;;;;;10370849;28;85091;-47
2022/04/26 18:13:53;;;;;;;;;;;14.30;1.00;;;;;;10372445;28;84405;-51
2022/04/26 18:18:57;;;;;;;;;;;14.20;1.00;;;;;;10370192;28;84985;-47
2022/04/26 18:23:58;;;;;;;;;;;14.00;1.00;;;;;;10370497;28;84945;-47
2022/04/26 18:28:59;;;;;;;;;;;13.90;1.00;;;;;;10370058;28;84817;-46
2022/04/26 18:33:59;;;;;;;;;;;13.90;1.00;;;;;;10368904;28;84062;-41
2022/04/26 18:39:00;;;;;;;;;;;13.80;1.00;;;;;;10370129;28;84242;-45
2022/04/26 18:44:02;;;;;;;;;;;13.80;1.00;;;;;;10352325;28;86403;-46
2022/04/26 18:49:02;;;;;;;;;;;13.60;1.00;;;;;;10369437;28;84122;-43
2022/04/26 18:54:04;;;;;;;;;;;13.50;1.00;;;;;;10369902;28;84751;-47
2022/04/26 18:59:05;;;;;;;;;;;13.40;1.00;;;;;;10368687;28;84096;-50
2022/04/26 19:04:05;;;;;;;;;;;13.20;98.80;;;;;;10369552;28;84163;-43
2022/04/26 19:09:06;;;;;;;;;;;13.30;99.90;;;;;;10368004;28;84078;-45
2022/04/26 19:14:06;;;;;;;;;;;13.20;99.90;;;;;;10370198;28;84890;-43
2022/04/26 19:19:08;;;;;;;;;;;13.10;99.90;;;;;;10368762;28;84880;-50
2022/04/26 19:24:08;;;;;;;;;;;12.90;99.90;;;;;;10369964;28;84047;-45
2022/04/26 19:29:10;;;;;;;;;;;12.90;99.90;;;;;;10368201;28;84058;-46
2022/04/26 19:34:10;;;;;;;;;;;12.80;99.90;;;;;;10381781;22;84206;-48
2022/04/26 19:39:11;;;;;;;;;;;12.70;99.90;;;;;;10367318;28;84070;-46
2022/04/26 19:44:11;;;;;;;;;;;12.70;99.90;;;;;;10367770;28;84850;-51
2022/04/26 19:49:12;;;;;;;;;;;12.60;99.90;;;;;;10367989;28;83989;-53
2022/04/26 19:54:13;;;;;;;;;;;12.50;99.90;;;;;;10367818;28;84193;-51
2022/04/26 19:59:13;;;;;;;;;;;12.50;99.90;;;;;;10367236;28;85359;-48
2022/04/26 20:04:14;;;;;;;;;;;12.30;99.90;;;;;;10367460;28;84123;-46
2022/04/26 20:09:14;;;;;;;;;;;12.20;99.90;;;;;;10368054;28;87486;-52
2022/04/26 20:14:15;;;;;;;;;;;12.00;99.90;;;;;;10369461;28;84734;-46
2022/04/26 20:19:15;;;;;;;;;;;11.80;1.00;;;;;;10367775;28;86417;-46
2022/04/26 20:24:16;;;;;;;;;;;11.70;1.00;;;;;;10370162;28;84932;-48
2022/04/26 20:34:36;;;;;;;;;;;11.50;1.00;;;;;;10355997;28;86717;-45
2022/04/26 20:39:37;;;;;;;;;;;11.40;1.00;;;;;;10374171;28;85022;-45
2022/04/26 20:44:40;;;;;;;;;;;11.40;1.00;;;;;;10374259;28;84105;-48
2022/04/26 20:49:41;;;;;;;;;;;11.30;1.00;;;;;;10367829;28;84029;-46
2022/04/26 20:54:42;;;;;;;;;;;11.00;1.00;;;;;;10372611;28;84963;-51
2022/04/26 20:59:43;;;;;;;;;;;11.00;1.00;;;;;;10373865;28;84037;-49
2022/04/26 21:04:43;;;;;;;;;;;11.00;1.00;;;;;;10374068;28;84726;-49
2022/04/26 21:09:44;;;;;;;;;;;10.90;1.00;;;;;;10353580;28;86779;-50
2022/04/26 21:14:44;;;;;;;;;;;10.80;1.00;;;;;;10373082;28;84239;-47
2022/04/26 21:19:46;;;;;;;;;;;10.80;1.00;;;;;;10375363;28;85663;-49
2022/04/26 21:24:46;;;;;;;;;;;10.70;1.00;;;;;;10362800;28;86014;-46
2022/04/26 21:29:47;;;;;;;;;;;10.60;1.00;;;;;;10380052;28;87833;-51
2022/04/26 21:34:47;;;;;;;;;;;10.60;1.00;;;;;;10353681;28;84210;-51
2022/04/26 21:39:48;;;;;;;;;;;10.40;1.00;;;;;;10369604;28;84870;-49
2022/04/26 21:44:48;;;;;;;;;;;10.40;1.00;;;;;;10372406;28;84958;-50
2022/04/26 21:55:09;;;;;;;;;;;10.30;1.00;;;;;;10370360;28;84739;-48
2022/04/26 22:00:27;;;;;;;;;;;10.30;1.00;;;;;;10369682;28;84131;-51
2022/04/26 22:05:29;;;;;;;;;;;10.30;1.00;;;;;;10368674;28;84162;-48
2022/04/26 22:10:30;;;;;;;;;;;10.10;1.00;;;;;;10367130;28;84236;-47
2022/04/26 22:15:30;;;;;;;;;;;10.00;1.00;;;;;;10351874;28;87018;-46
2022/04/26 22:20:31;;;;;;;;;;;9.90;1.00;;;;;;10370540;28;84867;-48
2022/04/26 22:25:32;;;;;;;;;;;9.80;1.00;;;;;;10370081;28;84736;-50
2022/04/26 22:30:33;;;;;;;;;;;9.80;1.00;;;;;;10370176;28;84223;-46
2022/04/26 22:35:33;;;;;;;;;;;9.70;1.00;;;;;;10369205;28;84499;-52
2022/04/26 22:40:34;;;;;;;;;;;9.70;1.00;;;;;;10364824;28;84771;-49
2022/04/26 22:45:34;;;;;;;;;;;9.60;1.00;;;;;;10369137;28;84942;-48
2022/04/26 22:50:35;;;;;;;;;;;9.50;1.00;;;;;;10369023;28;84954;-47
2022/04/26 22:55:35;;;;;;;;;;;9.50;1.00;;;;;;10368614;28;85766;-51
2022/04/26 23:00:36;;;;;;;;;;;9.40;1.00;;;;;;10370112;28;84607;-47
2022/04/26 23:05:37;;;;;;;;;;;9.30;1.00;;;;;;10368412;28;84115;-45
2022/04/26 23:10:38;;;;;;;;;;;9.30;1.00;;;;;;10352017;28;84197;-47
2022/04/26 23:15:39;;;;;;;;;;;9.10;1.00;;;;;;10368745;28;84335;-47
2022/04/26 23:20:39;;;;;;;;;;;9.00;1.00;;;;;;10369266;28;84936;-46
2022/04/26 23:25:40;;;;;;;;;;;9.00;1.00;;;;;;10368004;28;84778;-45
2022/04/26 23:30:40;;;;;;;;;;;8.90;1.00;;;;;;10368529;28;84945;-45
2022/04/26 23:35:42;;;;;;;;;;;8.80;1.00;;;;;;10367579;28;84959;-46
2022/04/26 23:40:49;;;;;;;;;;;8.70;1.00;;;;;;10368665;28;84200;-46
2022/04/26 23:45:49;;;;;;;;;;;8.70;1.00;;;;;;10367781;28;84219;-46
2022/04/26 23:56:09;;;;;;;;;;;8.50;1.00;;;;;;10368381;28;85161;-50
